Oilville, VA (23129)

7:23 AM EST on February 13, 2016 (GMT -0500)
Fox Downs | | Change Station
CLOSE
Current Station
Personal Weather Station
Location: Oilville, VA
Elevation: 340 ft
Nearby Weather Stations

Elev 340 ft 37.69 °N, 77.77 °W | Updated 15 seconds ago

Clear
Clear
21.9 °F
Feels Like 22 °F
N
3.0
Wind Variable Wind from NW
Gusts 8.0 mph

Today
High -- | Low -- °F
--% Chance of Precip.
Yesterday
High -- | Low -- °F
Precip. -- in
Pressure 30.22 in
Visibility 10.0 miles
Clouds Clear
Windchill 22 °F
Dew Point 1 °F
Humidity 40%
Rainfall 0.00 in
Snow Depth Not available.
7:03 AM 5:47 PM
Waxing Crescent, 30% visible
METAR KOFP 131154Z AUTO 31011G16KT 10SM CLR M06/M19 A3021 RMK AO2 SLP232 T10561194 11022 21061 53052
Pressure 30.22 in
Visibility 10.0 miles
Clouds Clear
Windchill 22 °F
Dew Point 1 °F
Humidity 40%
Rainfall 0.00 in
Snow Depth Not available.
7:03 AM 5:47 PM
Waxing Crescent, 30% visible
METAR KOFP 131154Z AUTO 31011G16KT 10SM CLR M06/M19 A3021 RMK AO2 SLP232 T10561194 11022 21061 53052

10-Day Weather Forecast

Almanac

Astronomy

Feb. 13, 2016 Rise Set
Actual Time
Civil Twilight
Nautical Twilight
Astronomical Twilight
Moon
Length of Visible Light
Length of Day
Tomorrow will be .
, % of the Moon is Illuminated

Today's Extremes

State Highs State Lows

Community

WunderPhotos

Upload Photos

1,892,543 photos uploaded!

WunderBlog® & News

Nearby

Air Quality

  Air Quality AQ Index Pollutant
Not available.

Snow Depth

Station Depth Elevation

Earthquake Activity

City Distance Mag. Time & Date
Minimum magnitude displayed is 2.5.

Coastal Water Temperatures

Place Temperature

Stations

Nearby Weather Stations

Station Location Temp. Windchill Dew Point Humidity Wind Precip. Elev Updated Type
                   

Watches & Warnings

There are currently no watches in effect.